sensor_id;sensor_type;location;lat;lon;timestamp;pressure;altitude;pressure_sealevel;temperature;humidity
12247;BME280;6186;52.022;4.692;2023-05-03T00:02:08;103075.50;;;9.06;53.70
12247;BME280;6186;52.022;4.692;2023-05-03T00:04:34;103073.69;;;9.02;53.96
12247;BME280;6186;52.022;4.692;2023-05-03T00:06:59;103073.66;;;9.00;53.81
12247;BME280;6186;52.022;4.692;2023-05-03T00:09:24;103066.59;;;8.98;54.08
12247;BME280;6186;52.022;4.692;2023-05-03T00:11:49;103061.34;;;8.96;53.83
12247;BME280;6186;52.022;4.692;2023-05-03T00:14:15;103064.81;;;8.95;54.01
12247;BME280;6186;52.022;4.692;2023-05-03T00:16:40;103063.88;;;8.93;54.05
12247;BME280;6186;52.022;4.692;2023-05-03T00:19:05;103063.84;;;8.90;54.11
12247;BME280;6186;52.022;4.692;2023-05-03T00:21:30;103065.66;;;8.93;54.21
12247;BME280;6186;52.022;4.692;2023-05-03T00:23:56;103066.53;;;8.93;54.09
12247;BME280;6186;52.022;4.692;2023-05-03T00:26:21;103064.75;;;8.92;54.20
12247;BME280;6186;52.022;4.692;2023-05-03T00:28:46;103063.84;;;8.90;54.18
12247;BME280;6186;52.022;4.692;2023-05-03T00:31:11;103056.84;;;8.89;54.33
12247;BME280;6186;52.022;4.692;2023-05-03T00:33:37;103062.97;;;8.90;54.23
12247;BME280;6186;52.022;4.692;2023-05-03T00:36:07;103062.09;;;8.89;54.27
12247;BME280;6186;52.022;4.692;2023-05-03T00:38:32;103055.94;;;8.89;54.29
12247;BME280;6186;52.022;4.692;2023-05-03T00:40:57;103061.19;;;8.87;54.37
12247;BME280;6186;52.022;4.692;2023-05-03T00:43:22;103064.63;;;8.85;54.17
12247;BME280;6186;52.022;4.692;2023-05-03T00:45:48;103044.38;;;8.76;54.43
12247;BME280;6186;52.022;4.692;2023-05-03T00:48:13;103061.13;;;8.84;54.32
12247;BME280;6186;52.022;4.692;2023-05-03T00:50:39;103066.38;;;8.86;54.32
12247;BME280;6186;52.022;4.692;2023-05-03T00:53:04;103067.28;;;8.86;54.56
12247;BME280;6186;52.022;4.692;2023-05-03T00:55:30;103054.94;;;8.81;54.62
12247;BME280;6186;52.022;4.692;2023-05-03T00:57:55;103064.63;;;8.83;54.35
12247;BME280;6186;52.022;4.692;2023-05-03T01:00:20;103065.44;;;8.82;54.25
12247;BME280;6186;52.022;4.692;2023-05-03T01:02:46;103074.22;;;8.81;54.55
12247;BME280;6186;52.022;4.692;2023-05-03T01:05:11;103072.41;;;8.80;54.50
12247;BME280;6186;52.022;4.692;2023-05-03T01:10:51;103061.88;;;8.77;54.41
12247;BME280;6186;52.022;4.692;2023-05-03T01:16:13;103060.13;;;8.76;54.68
12247;BME280;6186;52.022;4.692;2023-05-03T01:18:44;103056.59;;;8.76;54.59
12247;BME280;6186;52.022;4.692;2023-05-03T01:21:12;103055.69;;;8.74;54.75
12247;BME280;6186;52.022;4.692;2023-05-03T01:24:03;103066.16;;;8.72;54.67
12247;BME280;6186;52.022;4.692;2023-05-03T01:26:31;103057.41;;;8.72;54.68
12247;BME280;6186;52.022;4.692;2023-05-03T01:28:56;103055.63;;;8.71;54.67
12247;BME280;6186;52.022;4.692;2023-05-03T01:31:28;103063.41;;;8.65;54.53
12247;BME280;6186;52.022;4.692;2023-05-03T01:34:23;103066.97;;;8.68;54.66
12247;BME280;6186;52.022;4.692;2023-05-03T01:36:56;103066.97;;;8.68;54.81
12247;BME280;6186;52.022;4.692;2023-05-03T01:39:25;103060.78;;;8.65;54.70
12247;BME280;6186;52.022;4.692;2023-05-03T01:41:51;103054.66;;;8.66;54.74
12247;BME280;6186;52.022;4.692;2023-05-03T01:44:17;103051.13;;;8.65;54.78
12247;BME280;6186;52.022;4.692;2023-05-03T01:46:44;103045.84;;;8.62;54.76
12247;BME280;6186;52.022;4.692;2023-05-03T01:49:09;103042.31;;;8.60;54.88
12247;BME280;6186;52.022;4.692;2023-05-03T01:51:34;103044.06;;;8.61;54.85
12247;BME280;6186;52.022;4.692;2023-05-03T01:54:00;103045.81;;;8.59;54.71
12247;BME280;6186;52.022;4.692;2023-05-03T01:56:25;103033.53;;;8.58;54.82
12247;BME280;6186;52.022;4.692;2023-05-03T01:58:50;103022.13;;;8.57;54.84
12247;BME280;6186;52.022;4.692;2023-05-03T02:01:15;103022.09;;;8.54;54.83
12247;BME280;6186;52.022;4.692;2023-05-03T02:03:41;103022.91;;;8.52;54.94
12247;BME280;6186;52.022;4.692;2023-05-03T02:06:06;103018.53;;;8.52;55.04
12247;BME280;6186;52.022;4.692;2023-05-03T02:08:31;103006.25;;;8.50;54.93
12247;BME280;6186;52.022;4.692;2023-05-03T02:10:56;103005.31;;;8.46;54.96
12247;BME280;6186;52.022;4.692;2023-05-03T02:13:22;102995.59;;;8.42;55.00
12247;BME280;6186;52.022;4.692;2023-05-03T02:15:47;102990.34;;;8.41;55.08
12247;BME280;6186;52.022;4.692;2023-05-03T02:18:12;102989.41;;;8.39;55.14
12247;BME280;6186;52.022;4.692;2023-05-03T02:20:37;102984.13;;;8.36;55.05
12247;BME280;6186;52.022;4.692;2023-05-03T02:23:03;102987.56;;;8.32;55.05
12247;BME280;6186;52.022;4.692;2023-05-03T02:25:29;103000.59;;;8.29;55.16
12247;BME280;6186;52.022;4.692;2023-05-03T02:27:54;103005.81;;;8.27;54.97
12247;BME280;6186;52.022;4.692;2023-05-03T02:30:19;103016.28;;;8.24;55.15
12247;BME280;6186;52.022;4.692;2023-05-03T02:32:44;103021.47;;;8.23;55.16
12247;BME280;6186;52.022;4.692;2023-05-03T02:35:10;103021.41;;;8.21;54.98
12247;BME280;6186;52.022;4.692;2023-05-03T02:37:35;103020.53;;;8.21;55.16
12247;BME280;6186;52.022;4.692;2023-05-03T02:40:00;103025.78;;;8.21;55.38
12247;BME280;6186;52.022;4.692;2023-05-03T02:42:25;103031.91;;;8.21;55.25
12247;BME280;6186;52.022;4.692;2023-05-03T02:44:51;103022.94;;;8.10;55.03
12247;BME280;6186;52.022;4.692;2023-05-03T02:47:16;103044.88;;;8.14;55.25
12247;BME280;6186;52.022;4.692;2023-05-03T02:49:41;103038.69;;;8.10;55.07
12247;BME280;6186;52.022;4.692;2023-05-03T02:52:06;103038.63;;;8.07;55.20
12247;BME280;6186;52.022;4.692;2023-05-03T02:54:32;103037.72;;;8.07;55.21
12247;BME280;6186;52.022;4.692;2023-05-03T02:56:57;103035.09;;;8.05;55.08
12247;BME280;6186;52.022;4.692;2023-05-03T02:59:22;103038.59;;;8.04;55.13
12247;BME280;6186;52.022;4.692;2023-05-03T03:01:48;103036.78;;;8.02;55.32
12247;BME280;6186;52.022;4.692;2023-05-03T03:04:13;103029.75;;;8.01;55.11
12247;BME280;6186;52.022;4.692;2023-05-03T03:06:38;103029.72;;;7.99;55.01
12247;BME280;6186;52.022;4.692;2023-05-03T03:09:04;103031.44;;;7.99;55.43
12247;BME280;6186;52.022;4.692;2023-05-03T03:11:29;103041.00;;;7.97;55.19
12247;BME280;6186;52.022;4.692;2023-05-03T03:13:54;103033.97;;;7.93;55.30
12247;BME280;6186;52.022;4.692;2023-05-03T03:16:19;103046.16;;;7.91;55.09
12247;BME280;6186;52.022;4.692;2023-05-03T03:18:44;103052.22;;;7.88;55.47
12247;BME280;6186;52.022;4.692;2023-05-03T03:21:10;103039.06;;;7.87;55.13
12247;BME280;6186;52.022;4.692;2023-05-03T03:23:35;103036.31;;;7.81;55.43
12247;BME280;6186;52.022;4.692;2023-05-03T03:26:00;103041.59;;;7.82;55.44
12247;BME280;6186;52.022;4.692;2023-05-03T03:28:26;103051.19;;;7.82;55.25
12247;BME280;6186;52.022;4.692;2023-05-03T03:30:51;103052.91;;;7.80;55.17
12247;BME280;6186;52.022;4.692;2023-05-03T03:33:16;103034.41;;;7.72;55.35
12247;BME280;6186;52.022;4.692;2023-05-03T03:35:41;103044.03;;;7.75;55.32
12247;BME280;6186;52.022;4.692;2023-05-03T03:38:06;103039.69;;;7.74;55.21
12247;BME280;6186;52.022;4.692;2023-05-03T03:40:32;103045.84;;;7.76;55.42
12247;BME280;6186;52.022;4.692;2023-05-03T03:42:57;103039.69;;;7.75;55.37
12247;BME280;6186;52.022;4.692;2023-05-03T03:45:22;103042.25;;;7.72;55.58
12247;BME280;6186;52.022;4.692;2023-05-03T03:47:47;103049.22;;;7.70;55.37
12247;BME280;6186;52.022;4.692;2023-05-03T03:50:13;103050.94;;;7.70;55.54
12247;BME280;6186;52.022;4.692;2023-05-03T03:52:38;103053.53;;;7.68;55.41
12247;BME280;6186;52.022;4.692;2023-05-03T03:55:03;103050.84;;;7.67;55.56
12247;BME280;6186;52.022;4.692;2023-05-03T03:57:29;103055.16;;;7.64;55.51
12247;BME280;6186;52.022;4.692;2023-05-03T03:59:55;103056.03;;;7.63;55.35
12247;BME280;6186;52.022;4.692;2023-05-03T04:02:20;103064.78;;;7.63;55.66
12247;BME280;6186;52.022;4.692;2023-05-03T04:04:46;103050.50;;;7.51;55.74
12247;BME280;6186;52.022;4.692;2023-05-03T04:07:11;103060.25;;;7.57;55.35
12247;BME280;6186;52.022;4.692;2023-05-03T04:09:36;103069.88;;;7.56;55.35
12247;BME280;6186;52.022;4.692;2023-05-03T04:12:01;103076.81;;;7.54;55.50
12247;BME280;6186;52.022;4.692;2023-05-03T04:14:27;103075.94;;;7.55;55.83
12247;BME280;6186;52.022;4.692;2023-05-03T04:16:52;103075.91;;;7.54;55.57
12247;BME280;6186;52.022;4.692;2023-05-03T04:19:17;103079.44;;;7.54;55.50
12247;BME280;6186;52.022;4.692;2023-05-03T04:21:42;103084.69;;;7.56;55.88
12247;BME280;6186;52.022;4.692;2023-05-03T04:24:08;103080.34;;;7.56;55.82
12247;BME280;6186;52.022;4.692;2023-05-03T04:26:33;103079.47;;;7.57;55.87
12247;BME280;6186;52.022;4.692;2023-05-03T04:28:58;103072.41;;;7.53;56.01
12247;BME280;6186;52.022;4.692;2023-05-03T04:31:24;103086.56;;;7.61;55.98
12247;BME280;6186;52.022;4.692;2023-05-03T04:33:49;103085.75;;;7.63;55.69
12247;BME280;6186;52.022;4.692;2023-05-03T04:36:14;103079.59;;;7.62;56.14
12247;BME280;6186;52.022;4.692;2023-05-03T04:38:40;103080.50;;;7.63;55.95
12247;BME280;6186;52.022;4.692;2023-05-03T04:41:05;103068.16;;;7.58;56.31
12247;BME280;6186;52.022;4.692;2023-05-03T04:43:30;103075.31;;;7.66;56.18
12247;BME280;6186;52.022;4.692;2023-05-03T04:45:55;103072.69;;;7.66;56.33
12247;BME280;6186;52.022;4.692;2023-05-03T04:48:20;103082.31;;;7.67;56.31
12247;BME280;6186;52.022;4.692;2023-05-03T04:50:46;103078.84;;;7.68;56.07
12247;BME280;6186;52.022;4.692;2023-05-03T04:53:11;103076.25;;;7.69;56.37
12247;BME280;6186;52.022;4.692;2023-05-03T04:55:36;103078.06;;;7.72;56.34
12247;BME280;6186;52.022;4.692;2023-05-03T04:58:01;103077.22;;;7.73;56.40
12247;BME280;6186;52.022;4.692;2023-05-03T05:00:27;103071.91;;;7.70;56.63
12247;BME280;6186;52.022;4.692;2023-05-03T05:02:52;103077.31;;;7.77;56.58
12247;BME280;6186;52.022;4.692;2023-05-03T05:05:17;103067.59;;;7.72;56.45
12247;BME280;6186;52.022;4.692;2023-05-03T05:07:42;103081.69;;;7.78;56.41
12247;BME280;6186;52.022;4.692;2023-05-03T05:10:08;103074.63;;;7.74;56.53
12247;BME280;6186;52.022;4.692;2023-05-03T05:12:34;103086.13;;;7.81;56.64
12247;BME280;6186;52.022;4.692;2023-05-03T05:14:59;103090.56;;;7.83;56.91
12247;BME280;6186;52.022;4.692;2023-05-03T05:17:24;103088.00;;;7.86;57.01
12247;BME280;6186;52.022;4.692;2023-05-03T05:19:49;103090.66;;;7.88;56.71
12247;BME280;6186;52.022;4.692;2023-05-03T05:22:15;103097.69;;;7.89;56.89
12247;BME280;6186;52.022;4.692;2023-05-03T05:24:40;103089.81;;;7.89;56.84
12247;BME280;6186;52.022;4.692;2023-05-03T05:27:05;103093.44;;;7.95;57.07
12247;BME280;6186;52.022;4.692;2023-05-03T05:29:30;103088.16;;;7.94;57.18
12247;BME280;6186;52.022;4.692;2023-05-03T05:31:55;103088.16;;;7.94;57.29
12247;BME280;6186;52.022;4.692;2023-05-03T05:34:21;103097.00;;;7.99;56.93
12247;BME280;6186;52.022;4.692;2023-05-03T05:36:46;103095.25;;;7.98;57.15
12247;BME280;6186;52.022;4.692;2023-05-03T05:39:11;103089.97;;;7.95;57.22
12247;BME280;6186;52.022;4.692;2023-05-03T05:41:36;103099.72;;;8.02;57.36
12247;BME280;6186;52.022;4.692;2023-05-03T05:44:02;103099.75;;;8.03;57.45
12247;BME280;6186;52.022;4.692;2023-05-03T05:46:27;103109.47;;;8.09;57.68
12247;BME280;6186;52.022;4.692;2023-05-03T05:48:52;103094.75;;;8.15;57.70
12247;BME280;6186;52.022;4.692;2023-05-03T05:51:17;103098.34;;;8.19;57.62
12247;BME280;6186;52.022;4.692;2023-05-03T05:53:43;103093.91;;;8.18;57.88
12247;BME280;6186;52.022;4.692;2023-05-03T05:56:08;103092.31;;;8.23;57.94
12247;BME280;6186;52.022;4.692;2023-05-03T05:58:34;103097.69;;;8.29;57.95
12247;BME280;6186;52.022;4.692;2023-05-03T06:01:00;103102.22;;;8.36;57.87
12247;BME280;6186;52.022;4.692;2023-05-03T06:03:25;103103.13;;;8.38;58.29
12247;BME280;6186;52.022;4.692;2023-05-03T06:05:50;103102.28;;;8.40;58.07
12247;BME280;6186;52.022;4.692;2023-05-03T06:08:15;103082.13;;;8.36;58.13
12247;BME280;6186;52.022;4.692;2023-05-03T06:10:41;103091.91;;;8.45;58.32
12247;BME280;6186;52.022;4.692;2023-05-03T06:13:06;103083.22;;;8.47;58.33
12247;BME280;6186;52.022;4.692;2023-05-03T06:15:31;103094.66;;;8.51;58.23
12247;BME280;6186;52.022;4.692;2023-05-03T06:17:56;103085.91;;;8.52;58.45
12247;BME280;6186;52.022;4.692;2023-05-03T06:20:22;103093.00;;;8.57;58.40
12247;BME280;6186;52.022;4.692;2023-05-03T06:22:47;103098.41;;;8.65;58.78
12247;BME280;6186;52.022;4.692;2023-05-03T06:25:12;103085.25;;;8.64;58.77
12247;BME280;6186;52.022;4.692;2023-05-03T06:27:37;103096.84;;;8.75;58.79
12247;BME280;6186;52.022;4.692;2023-05-03T06:30:03;103102.19;;;8.79;58.81
12247;BME280;6186;52.022;4.692;2023-05-03T06:32:28;103101.31;;;8.80;58.99
12247;BME280;6186;52.022;4.692;2023-05-03T06:34:53;103102.28;;;8.84;58.96
12247;BME280;6186;52.022;4.692;2023-05-03T06:37:18;103093.53;;;8.86;59.03
12247;BME280;6186;52.022;4.692;2023-05-03T06:39:44;103097.16;;;8.91;59.38
12247;BME280;6186;52.022;4.692;2023-05-03T06:42:09;103094.59;;;8.96;59.06
12247;BME280;6186;52.022;4.692;2023-05-03T06:44:34;103095.53;;;8.99;59.03
12247;BME280;6186;52.022;4.692;2023-05-03T06:46:59;103089.47;;;9.03;59.41
12247;BME280;6186;52.022;4.692;2023-05-03T06:49:25;103086.03;;;9.06;59.40
12247;BME280;6186;52.022;4.692;2023-05-03T06:51:50;103079.09;;;9.11;59.61
12247;BME280;6186;52.022;4.692;2023-05-03T06:54:15;103076.56;;;9.17;59.66
12247;BME280;6186;52.022;4.692;2023-05-03T06:56:40;103067.06;;;9.25;59.89
12247;BME280;6186;52.022;4.692;2023-05-03T06:59:06;103071.56;;;9.33;59.91
12247;BME280;6186;52.022;4.692;2023-05-03T07:01:31;103068.19;;;9.40;60.16
12247;BME280;6186;52.022;4.692;2023-05-03T07:03:56;103055.94;;;9.42;60.20
12247;BME280;6186;52.022;4.692;2023-05-03T07:06:22;103064.00;;;9.53;60.44
12247;BME280;6186;52.022;4.692;2023-05-03T07:08:51;103062.31;;;9.60;60.62
12247;BME280;6186;52.022;4.692;2023-05-03T07:11:17;103064.19;;;9.67;60.46
12247;BME280;6186;52.022;4.692;2023-05-03T07:13:42;103066.06;;;9.75;60.97
12247;BME280;6186;52.022;4.692;2023-05-03T07:16:08;103063.53;;;9.83;60.86
12247;BME280;6186;52.022;4.692;2023-05-03T07:18:33;103057.47;;;9.90;61.04
12247;BME280;6186;52.022;4.692;2023-05-03T07:20:58;103054.19;;;10.06;61.42
12247;BME280;6186;52.022;4.692;2023-05-03T07:23:23;103056.16;;;10.20;61.59
12247;BME280;6186;52.022;4.692;2023-05-03T07:25:48;103048.41;;;10.31;61.65
12247;BME280;6186;52.022;4.692;2023-05-03T07:28:15;103039.78;;;10.47;61.94
12247;BME280;6186;52.022;4.692;2023-05-03T07:30:40;103040.75;;;10.55;61.95
12247;BME280;6186;52.022;4.692;2023-05-03T07:33:05;103045.25;;;10.68;62.53
12247;BME280;6186;52.022;4.692;2023-05-03T07:35:31;103032.22;;;10.82;62.45
12247;BME280;6186;52.022;4.692;2023-05-03T07:37:56;103035.03;;;11.01;62.66
12247;BME280;6186;52.022;4.692;2023-05-03T07:40:21;103036.84;;;11.11;62.53
12247;BME280;6186;52.022;4.692;2023-05-03T07:42:46;103029.88;;;11.16;62.58
12247;BME280;6186;52.022;4.692;2023-05-03T07:45:12;103031.66;;;11.20;62.45
12247;BME280;6186;52.022;4.692;2023-05-03T07:47:37;103020.25;;;11.20;62.57
12247;BME280;6186;52.022;4.692;2023-05-03T07:50:03;103017.66;;;11.30;62.67
12247;BME280;6186;52.022;4.692;2023-05-03T07:52:28;103017.75;;;11.43;62.75
12247;BME280;6186;52.022;4.692;2023-05-03T07:54:53;103022.19;;;11.53;63.03
12247;BME280;6186;52.022;4.692;2023-05-03T07:57:18;103019.63;;;11.62;62.97
12247;BME280;6186;52.022;4.692;2023-05-03T07:59:44;103021.47;;;11.75;63.10
12247;BME280;6186;52.022;4.692;2023-05-03T08:02:09;103032.13;;;11.90;63.26
12247;BME280;6186;52.022;4.692;2023-05-03T08:04:34;103036.56;;;12.03;63.58
12247;BME280;6186;52.022;4.692;2023-05-03T08:07:00;103026.94;;;12.23;64.13
12247;BME280;6186;52.022;4.692;2023-05-03T08:09:26;103022.56;;;12.42;64.53
12247;BME280;6186;52.022;4.692;2023-05-03T08:11:51;103019.97;;;12.63;64.78
12247;BME280;6186;52.022;4.692;2023-05-03T08:14:16;103015.56;;;12.74;64.38
12247;BME280;6186;52.022;4.692;2023-05-03T08:16:41;103008.53;;;12.82;64.32
12247;BME280;6186;52.022;4.692;2023-05-03T08:19:06;103010.31;;;12.84;63.84
12247;BME280;6186;52.022;4.692;2023-05-03T08:21:32;103019.13;;;12.77;63.60
12247;BME280;6186;52.022;4.692;2023-05-03T08:23:57;103008.56;;;12.70;63.25
12247;BME280;6186;52.022;4.692;2023-05-03T08:26:22;103014.72;;;12.88;64.22
12247;BME280;6186;52.022;4.692;2023-05-03T08:28:47;103014.75;;;13.12;64.62
12247;BME280;6186;52.022;4.692;2023-05-03T08:31:13;102996.19;;;13.23;64.72
12247;BME280;6186;52.022;4.692;2023-05-03T08:33:38;103004.13;;;13.40;64.87
12247;BME280;6186;52.022;4.692;2023-05-03T08:36:03;103007.63;;;13.57;64.97
12247;BME280;6186;52.022;4.692;2023-05-03T08:38:29;103024.31;;;13.69;64.99
12247;BME280;6186;52.022;4.692;2023-05-03T08:40:57;103021.66;;;13.77;64.87
12247;BME280;6186;52.022;4.692;2023-05-03T08:43:26;103023.38;;;13.82;64.70
12247;BME280;6186;52.022;4.692;2023-05-03T08:45:52;103034.84;;;13.86;64.73
12247;BME280;6186;52.022;4.692;2023-05-03T08:48:17;103036.56;;;13.99;64.94
12247;BME280;6186;52.022;4.692;2023-05-03T08:50:43;103027.75;;;13.95;64.45
12247;BME280;6186;52.022;4.692;2023-05-03T08:53:09;103029.53;;;13.96;64.27
12247;BME280;6186;52.022;4.692;2023-05-03T08:55:34;103032.16;;;14.04;64.64
12247;BME280;6186;52.022;4.692;2023-05-03T08:57:59;103022.31;;;14.19;64.90
12247;BME280;6186;52.022;4.692;2023-05-03T09:00:27;103024.06;;;14.36;65.34
12247;BME280;6186;52.022;4.692;2023-05-03T09:02:52;103027.38;;;14.65;65.90
12247;BME280;6186;52.022;4.692;2023-05-03T09:10:26;103032.91;;;15.41;67.45
12247;BME280;6186;52.022;4.692;2023-05-03T09:13:00;103028.22;;;15.70;68.27
12247;BME280;6186;52.022;4.692;2023-05-03T09:15:26;103022.59;;;15.94;68.62
12247;BME280;6186;52.022;4.692;2023-05-03T09:18:16;103022.22;;;16.23;69.40
12247;BME280;6186;52.022;4.692;2023-05-03T09:20:43;103024.47;;;16.53;70.58
12247;BME280;6186;52.022;4.692;2023-05-03T09:23:08;103020.66;;;16.70;70.97
12247;BME280;6186;52.022;4.692;2023-05-03T09:28:09;103024.03;;;16.81;71.05
12247;BME280;6186;52.022;4.692;2023-05-03T09:30:34;103021.88;;;17.05;72.43
12247;BME280;6186;52.022;4.692;2023-05-03T09:32:59;103021.34;;;17.32;73.30
12247;BME280;6186;52.022;4.692;2023-05-03T09:35:24;103012.16;;;17.51;73.70
12247;BME280;6186;52.022;4.692;2023-05-03T09:37:49;103015.44;;;17.65;74.72
12247;BME280;6186;52.022;4.692;2023-05-03T09:40:15;102993.94;;;17.74;75.68
12247;BME280;6186;52.022;4.692;2023-05-03T09:42:41;103008.72;;;18.30;77.58
12247;BME280;6186;52.022;4.692;2023-05-03T09:45:26;103012.25;;;18.68;79.18
12247;BME280;6186;52.022;4.692;2023-05-03T09:47:52;103010.50;;;19.03;80.00
12247;BME280;6186;52.022;4.692;2023-05-03T09:50:18;103018.69;;;19.32;80.71
12247;BME280;6186;52.022;4.692;2023-05-03T09:52:44;103014.16;;;19.66;82.24
12247;BME280;6186;52.022;4.692;2023-05-03T09:55:10;103012.44;;;19.94;82.33
12247;BME280;6186;52.022;4.692;2023-05-03T09:57:36;103001.81;;;19.91;80.32
12247;BME280;6186;52.022;4.692;2023-05-03T10:00:02;103012.66;;;19.87;79.02
12247;BME280;6186;52.022;4.692;2023-05-03T10:02:30;103013.44;;;19.90;78.89
12247;BME280;6186;52.022;4.692;2023-05-03T10:04:56;103005.09;;;20.01;78.67
12247;BME280;6186;52.022;4.692;2023-05-03T10:07:22;103000.94;;;20.21;79.90
12247;BME280;6186;52.022;4.692;2023-05-03T10:09:49;102998.53;;;20.41;79.78
12247;BME280;6186;52.022;4.692;2023-05-03T10:12:14;103004.25;;;20.29;77.32
12247;BME280;6186;52.022;4.692;2023-05-03T10:14:41;103015.13;;;20.23;76.51
12247;BME280;6186;52.022;4.692;2023-05-03T10:17:15;103002.28;;;20.36;77.03
12247;BME280;6186;52.022;4.692;2023-05-03T10:22:16;102988.72;;;20.40;75.13
12247;BME280;6186;52.022;4.692;2023-05-03T10:27:39;102979.63;;;20.46;73.51
12247;BME280;6186;52.022;4.692;2023-05-03T10:30:05;102984.13;;;20.45;72.32
12247;BME280;6186;52.022;4.692;2023-05-03T10:32:36;102979.38;;;20.53;72.28
12247;BME280;6186;52.022;4.692;2023-05-03T10:35:06;102982.50;;;20.68;72.40
12247;BME280;6186;52.022;4.692;2023-05-03T10:37:32;102987.13;;;20.89;73.23
12247;BME280;6186;52.022;4.692;2023-05-03T10:40:08;102985.38;;;20.88;71.34
12247;BME280;6186;52.022;4.692;2023-05-03T10:42:33;102967.72;;;21.08;72.80
12247;BME280;6186;52.022;4.692;2023-05-03T10:44:59;102970.41;;;21.33;73.65
12247;BME280;6186;52.022;4.692;2023-05-03T10:47:25;102973.88;;;21.60;73.58
12247;BME280;6186;52.022;4.692;2023-05-03T10:57:36;102967.50;;;21.39;71.22
12247;BME280;6186;52.022;4.692;2023-05-03T11:00:03;102959.41;;;21.40;70.79
12247;BME280;6186;52.022;4.692;2023-05-03T11:02:35;102956.16;;;21.32;69.33
12247;BME280;6186;52.022;4.692;2023-05-03T11:05:04;102970.72;;;21.48;70.12
12247;BME280;6186;52.022;4.692;2023-05-03T11:07:32;102949.81;;;21.58;69.72
12247;BME280;6186;52.022;4.692;2023-05-03T11:09:57;102939.13;;;21.81;69.68
12247;BME280;6186;52.022;4.692;2023-05-03T11:12:22;102947.97;;;22.06;69.53
12247;BME280;6186;52.022;4.692;2023-05-03T11:14:49;102946.41;;;22.22;68.34
12247;BME280;6186;52.022;4.692;2023-05-03T11:17:15;102940.81;;;22.28;68.04
12247;BME280;6186;52.022;4.692;2023-05-03T11:19:42;102945.97;;;22.55;68.04
12247;BME280;6186;52.022;4.692;2023-05-03T11:22:08;102941.81;;;22.69;67.28
12247;BME280;6186;52.022;4.692;2023-05-03T11:24:33;102919.72;;;22.63;66.20
12247;BME280;6186;52.022;4.692;2023-05-03T11:26:58;102916.63;;;22.72;66.81
12247;BME280;6186;52.022;4.692;2023-05-03T11:29:24;102926.25;;;22.77;64.75
12247;BME280;6186;52.022;4.692;2023-05-03T11:31:50;102919.47;;;22.69;64.91
12247;BME280;6186;52.022;4.692;2023-05-03T11:34:15;102938.16;;;22.92;65.18
12247;BME280;6186;52.022;4.692;2023-05-03T11:36:41;102931.09;;;23.09;65.50
12247;BME280;6186;52.022;4.692;2023-05-03T11:39:06;102926.78;;;23.25;65.87
12247;BME280;6186;52.022;4.692;2023-05-03T11:41:34;102926.88;;;23.24;64.66
12247;BME280;6186;52.022;4.692;2023-05-03T11:43:59;102918.66;;;23.27;63.69
12247;BME280;6186;52.022;4.692;2023-05-03T11:46:27;102921.50;;;23.04;62.55
12247;BME280;6186;52.022;4.692;2023-05-03T11:48:52;102910.34;;;22.93;61.97
12247;BME280;6186;52.022;4.692;2023-05-03T11:51:21;102902.00;;;22.79;61.55
12247;BME280;6186;52.022;4.692;2023-05-03T11:53:47;102886.03;;;22.76;61.89
12247;BME280;6186;52.022;4.692;2023-05-03T11:56:13;102898.66;;;22.74;60.74
12247;BME280;6186;52.022;4.692;2023-05-03T11:58:55;102888.88;;;22.73;61.55
12247;BME280;6186;52.022;4.692;2023-05-03T12:01:24;102882.78;;;22.68;60.74
12247;BME280;6186;52.022;4.692;2023-05-03T12:03:58;102885.75;;;22.62;60.58
12247;BME280;6186;52.022;4.692;2023-05-03T12:06:24;102887.56;;;22.61;59.71
12247;BME280;6186;52.022;4.692;2023-05-03T12:08:50;102882.56;;;22.52;59.51
12247;BME280;6186;52.022;4.692;2023-05-03T12:11:15;102876.00;;;22.37;58.58
12247;BME280;6186;52.022;4.692;2023-05-03T12:13:41;102877.59;;;22.21;58.44
12247;BME280;6186;52.022;4.692;2023-05-03T12:16:08;102866.53;;;22.07;58.09
12247;BME280;6186;52.022;4.692;2023-05-03T12:18:48;102859.94;;;21.94;57.75
12247;BME280;6186;52.022;4.692;2023-05-03T12:21:13;102859.03;;;21.95;57.50
12247;BME280;6186;52.022;4.692;2023-05-03T12:23:39;102852.34;;;21.84;57.15
12247;BME280;6186;52.022;4.692;2023-05-03T12:26:04;102856.13;;;21.77;57.02
12247;BME280;6186;52.022;4.692;2023-05-03T12:28:29;102853.69;;;21.94;57.56
12247;BME280;6186;52.022;4.692;2023-05-03T12:30:54;102851.28;;;21.88;56.03
12247;BME280;6186;52.022;4.692;2023-05-03T12:33:20;102824.06;;;21.52;55.50
12247;BME280;6186;52.022;4.692;2023-05-03T12:35:45;102842.28;;;21.44;55.07
12247;BME280;6186;52.022;4.692;2023-05-03T12:38:10;102844.00;;;21.45;55.75
12247;BME280;6186;52.022;4.692;2023-05-03T12:40:35;102841.09;;;21.51;55.17
12247;BME280;6186;52.022;4.692;2023-05-03T12:43:03;102841.16;;;21.49;54.88
12247;BME280;6186;52.022;4.692;2023-05-03T12:45:28;102835.13;;;21.66;55.77
12247;BME280;6186;52.022;4.692;2023-05-03T12:47:53;102824.63;;;21.83;55.52
12247;BME280;6186;52.022;4.692;2023-05-03T12:50:18;102830.44;;;21.94;55.76
12247;BME280;6186;52.022;4.692;2023-05-03T12:52:44;102818.78;;;21.95;55.31
12247;BME280;6186;52.022;4.692;2023-05-03T12:55:09;102820.91;;;21.87;55.00
12247;BME280;6186;52.022;4.692;2023-05-03T12:57:34;102825.66;;;21.79;54.57
12247;BME280;6186;52.022;4.692;2023-05-03T12:59:59;102815.78;;;21.81;54.89
12247;BME280;6186;52.022;4.692;2023-05-03T13:02:25;102810.91;;;21.91;55.03
12247;BME280;6186;52.022;4.692;2023-05-03T13:04:50;102808.91;;;21.96;54.51
12247;BME280;6186;52.022;4.692;2023-05-03T13:07:15;102807.78;;;22.01;54.88
12247;BME280;6186;52.022;4.692;2023-05-03T13:09:44;102801.91;;;21.92;54.00
12247;BME280;6186;52.022;4.692;2023-05-03T13:12:09;102801.06;;;21.91;54.34
12247;BME280;6186;52.022;4.692;2023-05-03T13:14:35;102798.44;;;21.90;54.25
12247;BME280;6186;52.022;4.692;2023-05-03T13:17:00;102795.72;;;21.91;54.23
12247;BME280;6186;52.022;4.692;2023-05-03T13:19:25;102800.38;;;21.86;53.57
12247;BME280;6186;52.022;4.692;2023-05-03T13:21:50;102790.94;;;21.76;53.04
12247;BME280;6186;52.022;4.692;2023-05-03T13:24:16;102780.69;;;21.64;53.26
12247;BME280;6186;52.022;4.692;2023-05-03T13:26:41;102780.31;;;21.73;53.57